Time;durP1;ratioP1;P1;durP2;ratioP2;P2;SDS_P1;SDS_P2;PMS_P1;PMS_P2;Temp;Humidity;BMP_temperature;BMP_pressure;BME280_temperature;BME280_humidity;BME280_pressure;Samples;Min_cycle;Max_cycle;Signal;HPM_P1;HPM_P2
2023/05/19 00:00:35;;;;;;;7.85;2.83;;;11.90;63.00;;;;;;4972288;28;20066;-76
2023/05/19 00:03:03;;;;;;;8.48;2.97;;;11.90;63.00;;;;;;4954864;28;20043;-76
2023/05/19 00:05:33;;;;;;;8.95;2.72;;;11.80;63.20;;;;;;4962370;28;20050;-76
2023/05/19 00:08:00;;;;;;;7.03;2.63;;;11.80;63.40;;;;;;4954749;28;20150;-76
2023/05/19 00:10:30;;;;;;;10.80;3.10;;;11.80;63.40;;;;;;4972310;28;20816;-76
2023/05/19 00:12:58;;;;;;;10.88;3.28;;;11.70;63.50;;;;;;4953857;28;20054;-76
2023/05/19 00:15:25;;;;;;;6.90;2.88;;;11.70;63.60;;;;;;4958463;28;20075;-77
2023/05/19 00:17:54;;;;;;;8.52;2.90;;;11.70;63.60;;;;;;4953417;28;20058;-76
2023/05/19 00:20:21;;;;;;;7.97;2.80;;;11.70;63.50;;;;;;4953486;28;20418;-76
2023/05/19 00:22:49;;;;;;;8.95;2.80;;;11.70;63.70;;;;;;4971354;28;20266;-76
2023/05/19 00:25:16;;;;;;;8.02;3.22;;;11.70;63.80;;;;;;4970916;28;20048;-76
2023/05/19 00:27:43;;;;;;;10.07;3.22;;;11.70;63.80;;;;;;4961533;28;20560;-76
2023/05/19 00:30:11;;;;;;;9.27;3.10;;;11.70;63.90;;;;;;4952810;28;20089;-76
2023/05/19 00:32:38;;;;;;;8.53;3.13;;;11.60;63.90;;;;;;4941358;28;20051;-76
2023/05/19 00:35:05;;;;;;;11.40;3.30;;;11.60;64.00;;;;;;4968985;28;20264;-76
2023/05/19 00:37:32;;;;;;;15.93;3.03;;;11.50;64.00;;;;;;4955446;28;20489;-76
2023/05/19 00:40:00;;;;;;;8.35;3.00;;;11.50;64.00;;;;;;4937951;28;20074;-76
2023/05/19 00:42:28;;;;;;;9.90;3.38;;;11.50;64.20;;;;;;4971221;28;20083;-76
2023/05/19 00:44:55;;;;;;;8.07;3.00;;;11.50;64.30;;;;;;4953365;28;20053;-76
2023/05/19 00:47:22;;;;;;;10.68;3.65;;;11.50;64.40;;;;;;4960757;28;20271;-77
2023/05/19 00:49:49;;;;;;;9.35;3.00;;;11.40;64.60;;;;;;4954919;28;20048;-77
2023/05/19 00:52:15;;;;;;;9.27;3.63;;;11.40;64.70;;;;;;4947393;28;20484;-77
2023/05/19 00:54:44;;;;;;;7.97;3.08;;;11.40;64.70;;;;;;4951960;28;20055;-77
2023/05/19 00:57:13;;;;;;;7.97;3.10;;;11.40;64.80;;;;;;4936446;28;20292;-77
2023/05/19 00:59:40;;;;;;;7.40;3.10;;;11.30;65.00;;;;;;4960675;28;20804;-77
2023/05/19 01:02:07;;;;;;;9.52;3.25;;;11.30;65.10;;;;;;4952872;28;20126;-77
2023/05/19 01:04:36;;;;;;;10.60;3.53;;;11.30;65.00;;;;;;4952566;28;20182;-77
2023/05/19 01:07:04;;;;;;;8.27;3.03;;;11.30;65.20;;;;;;4953200;28;20043;-77
2023/05/19 01:09:31;;;;;;;9.70;3.13;;;11.20;65.20;;;;;;4952794;28;20502;-77
2023/05/19 01:11:58;;;;;;;8.15;3.05;;;11.20;65.20;;;;;;4953876;28;20334;-77
2023/05/19 01:14:29;;;;;;;10.32;3.65;;;11.20;65.30;;;;;;4957572;28;20564;-77
2023/05/19 01:17:04;;;;;;;6.88;3.03;;;11.10;65.20;;;;;;4952584;28;20085;-77
2023/05/19 01:19:56;;;;;;;8.05;3.00;;;11.10;65.40;;;;;;4952910;28;20059;-77
2023/05/19 01:23:13;;;;;;;8.47;2.90;;;11.10;65.50;;;;;;4949484;28;20062;-77
2023/05/19 01:26:20;;;;;;;8.18;3.35;;;11.10;65.40;;;;;;4873529;29;20933;-77
2023/05/19 01:29:07;;;;;;;9.23;3.17;;;11.00;65.50;;;;;;4942254;28;20536;-77
2023/05/19 01:31:37;;;;;;;9.68;3.67;;;11.00;65.60;;;;;;4947822;28;20395;-77
2023/05/19 01:34:06;;;;;;;10.90;3.15;;;11.00;65.50;;;;;;4969332;28;20541;-77
2023/05/19 01:36:34;;;;;;;12.27;3.20;;;11.00;65.60;;;;;;4952485;28;20143;-77
2023/05/19 01:39:03;;;;;;;8.70;2.95;;;11.00;65.70;;;;;;4952484;28;20267;-77
2023/05/19 01:41:32;;;;;;;11.25;3.33;;;11.00;65.90;;;;;;4937976;28;20087;-77
2023/05/19 01:43:59;;;;;;;9.80;3.58;;;11.00;66.00;;;;;;4952589;28;20496;-77
2023/05/19 01:46:27;;;;;;;10.10;3.03;;;11.00;66.10;;;;;;4949588;28;20143;-77
2023/05/19 01:48:56;;;;;;;9.33;3.30;;;11.00;66.20;;;;;;4956982;28;20051;-77
2023/05/19 01:51:23;;;;;;;8.55;3.15;;;10.90;66.20;;;;;;4968706;28;20256;-76
2023/05/19 01:53:50;;;;;;;8.88;2.80;;;10.90;66.30;;;;;;4950153;28;20478;-77
2023/05/19 01:56:25;;;;;;;8.82;3.33;;;10.90;66.30;;;;;;4951613;28;20086;-77
2023/05/19 01:59:04;;;;;;;10.02;3.05;;;10.90;66.60;;;;;;4972443;28;20047;-77
2023/05/19 02:01:35;;;;;;;7.43;2.87;;;10.80;66.60;;;;;;4962180;28;20047;-78
2023/05/19 02:04:18;;;;;;;8.20;3.05;;;10.80;66.70;;;;;;4952221;28;20267;-78
2023/05/19 02:06:50;;;;;;;8.93;3.38;;;10.80;66.70;;;;;;4969167;28;20155;-77
2023/05/19 02:09:23;;;;;;;10.32;3.13;;;10.80;66.70;;;;;;4972384;28;20094;-77
2023/05/19 02:11:54;;;;;;;7.18;2.70;;;10.80;66.80;;;;;;4961278;28;20075;-77
2023/05/19 02:14:25;;;;;;;6.40;2.70;;;10.80;66.80;;;;;;4951744;28;20668;-77
2023/05/19 02:16:53;;;;;;;9.50;2.95;;;10.70;66.90;;;;;;4935429;28;20319;-77
2023/05/19 02:19:24;;;;;;;11.52;3.20;;;10.70;66.80;;;;;;4951993;28;20047;-78
2023/05/19 02:21:51;;;;;;;7.72;2.65;;;10.60;67.10;;;;;;4932427;28;20164;-77
2023/05/19 02:24:21;;;;;;;9.02;2.83;;;10.60;67.10;;;;;;4952022;28;20106;-77
2023/05/19 02:26:49;;;;;;;8.13;3.00;;;10.60;67.20;;;;;;4935613;28;20058;-77
2023/05/19 02:29:16;;;;;;;7.32;2.55;;;10.60;67.30;;;;;;4969201;28;20858;-77
2023/05/19 02:31:43;;;;;;;8.90;3.05;;;10.50;67.30;;;;;;4969082;28;20059;-77
2023/05/19 02:34:10;;;;;;;6.47;2.58;;;10.50;67.30;;;;;;4980771;28;20138;-77
2023/05/19 02:36:41;;;;;;;10.73;2.95;;;10.50;67.30;;;;;;4960198;28;20122;-77
2023/05/19 02:39:09;;;;;;;7.37;2.67;;;10.50;67.30;;;;;;4935998;28;20047;-77
2023/05/19 02:41:36;;;;;;;8.98;2.85;;;10.50;67.20;;;;;;4953835;28;20272;-76
2023/05/19 02:44:04;;;;;;;10.70;2.63;;;10.50;67.10;;;;;;4953397;28;20059;-77
2023/05/19 02:46:31;;;;;;;8.32;2.85;;;10.50;67.20;;;;;;4933566;28;20048;-77
2023/05/19 02:48:59;;;;;;;10.73;2.90;;;10.50;67.20;;;;;;4953154;28;20445;-77
2023/05/19 02:51:26;;;;;;;10.13;2.90;;;10.50;67.30;;;;;;4956541;28;20070;-76
2023/05/19 02:53:54;;;;;;;6.63;2.50;;;10.40;67.20;;;;;;4951433;28;20386;-77
2023/05/19 02:56:21;;;;;;;7.15;2.60;;;10.40;67.20;;;;;;4954054;28;20087;-77
2023/05/19 02:58:48;;;;;;;6.35;2.40;;;10.40;67.20;;;;;;4937272;28;20047;-78
2023/05/19 03:01:15;;;;;;;8.25;2.60;;;10.40;67.20;;;;;;4934278;28;20051;-77
2023/05/19 03:03:42;;;;;;;9.50;2.67;;;10.40;67.30;;;;;;4951221;28;20051;-78
2023/05/19 03:06:09;;;;;;;7.47;2.75;;;10.40;67.10;;;;;;4950474;28;20795;-77
2023/05/19 03:08:36;;;;;;;12.05;2.75;;;10.40;67.10;;;;;;4971374;28;20051;-77
2023/05/19 03:11:04;;;;;;;9.00;2.10;;;10.40;67.20;;;;;;4959585;28;20812;-77
2023/05/19 03:13:31;;;;;;;9.00;2.70;;;10.30;67.50;;;;;;4965481;28;20058;-77
2023/05/19 03:15:58;;;;;;;10.30;3.13;;;10.30;67.40;;;;;;4942192;28;20054;-77
2023/05/19 03:18:26;;;;;;;9.15;2.65;;;10.30;67.60;;;;;;4953831;28;20291;-77
2023/05/19 03:20:53;;;;;;;6.85;2.30;;;10.30;67.50;;;;;;4974681;28;20133;-76
2023/05/19 03:23:21;;;;;;;6.85;2.40;;;10.30;67.60;;;;;;4938529;28;20051;-77
2023/05/19 03:25:48;;;;;;;6.97;2.70;;;10.30;67.60;;;;;;4963746;28;20046;-77
2023/05/19 03:28:17;;;;;;;6.93;2.30;;;10.30;67.60;;;;;;4974161;28;20646;-77
2023/05/19 03:30:44;;;;;;;8.15;2.40;;;10.20;67.70;;;;;;4980269;28;20298;-77
2023/05/19 03:33:14;;;;;;;6.03;2.20;;;10.20;67.30;;;;;;4958528;28;20215;-77
2023/05/19 03:35:43;;;;;;;7.70;2.20;;;10.20;67.10;;;;;;4964821;28;20626;-78
2023/05/19 03:38:10;;;;;;;8.75;2.53;;;10.20;67.20;;;;;;4953757;28;20059;-77
2023/05/19 03:40:40;;;;;;;8.30;2.70;;;10.20;67.40;;;;;;4952261;28;20531;-77
2023/05/19 03:43:10;;;;;;;6.72;2.33;;;10.10;67.30;;;;;;4968331;28;21081;-77
2023/05/19 03:45:45;;;;;;;9.57;2.20;;;10.10;67.40;;;;;;4936086;28;20149;-77
2023/05/19 03:48:32;;;;;;;7.55;2.40;;;10.10;67.50;;;;;;4963155;28;20062;-78
2023/05/19 03:51:22;;;;;;;7.43;2.30;;;10.10;67.30;;;;;;4924236;28;20093;-77
2023/05/19 03:53:52;;;;;;;8.77;2.57;;;10.10;67.10;;;;;;4969949;28;20043;-78
2023/05/19 03:56:22;;;;;;;9.20;2.55;;;10.10;67.30;;;;;;4970641;28;20255;-77
2023/05/19 03:58:49;;;;;;;9.25;2.80;;;10.10;67.70;;;;;;4955843;28;20468;-77
2023/05/19 04:01:17;;;;;;;7.28;2.25;;;10.00;67.90;;;;;;4961108;28;20127;-75
2023/05/19 04:03:44;;;;;;;5.82;1.70;;;10.00;68.10;;;;;;4941442;28;20061;-75
2023/05/19 04:06:11;;;;;;;7.17;2.00;;;10.00;68.10;;;;;;4972372;28;20127;-75
2023/05/19 04:08:39;;;;;;;6.40;2.00;;;10.00;68.20;;;;;;4987747;28;20315;-76
2023/05/19 04:11:06;;;;;;;5.03;1.90;;;10.00;68.20;;;;;;4942431;28;20055;-77
2023/05/19 04:13:33;;;;;;;6.55;1.98;;;10.00;68.40;;;;;;4940744;28;20573;-76
2023/05/19 04:16:00;;;;;;;7.18;2.33;;;10.00;68.30;;;;;;4954649;28;20052;-77
2023/05/19 04:18:29;;;;;;;7.70;2.67;;;9.90;68.60;;;;;;4956127;28;20047;-76
2023/05/19 04:20:56;;;;;;;6.30;2.53;;;9.90;68.50;;;;;;4970740;28;20431;-77
2023/05/19 04:23:22;;;;;;;8.45;2.42;;;9.90;68.70;;;;;;4956781;28;20055;-76
2023/05/19 04:25:50;;;;;;;7.18;2.50;;;9.90;68.50;;;;;;4952613;28;20118;-77
2023/05/19 04:28:17;;;;;;;6.88;3.08;;;9.80;68.50;;;;;;4952383;28;20123;-77
2023/05/19 04:30:45;;;;;;;9.13;2.50;;;9.80;68.70;;;;;;4955247;28;20062;-77
2023/05/19 04:33:12;;;;;;;9.95;2.85;;;9.80;69.00;;;;;;4954912;28;20766;-77
2023/05/19 04:35:42;;;;;;;9.00;2.97;;;9.80;69.20;;;;;;4957604;28;20137;-77
2023/05/19 04:38:10;;;;;;;15.55;3.80;;;9.80;69.40;;;;;;4953167;28;20061;-76
2023/05/19 04:40:41;;;;;;;14.13;3.53;;;9.80;69.60;;;;;;4958288;28;20528;-77
2023/05/19 04:43:10;;;;;;;7.60;3.50;;;9.80;69.80;;;;;;4938502;28;20063;-77
2023/05/19 04:45:41;;;;;;;11.00;3.70;;;9.80;69.90;;;;;;4969511;28;20354;-77
2023/05/19 04:48:08;;;;;;;8.90;3.65;;;9.80;70.10;;;;;;4971415;28;20055;-77
2023/05/19 04:50:37;;;;;;;8.23;3.38;;;9.80;70.00;;;;;;4934218;28;20132;-76
2023/05/19 04:53:05;;;;;;;8.55;3.63;;;9.80;70.10;;;;;;4967998;28;20055;-77
2023/05/19 04:55:33;;;;;;;9.43;3.43;;;9.80;70.50;;;;;;4953059;28;20067;-77
2023/05/19 04:58:00;;;;;;;11.68;3.50;;;9.80;70.30;;;;;;4951886;28;20310;-77
2023/05/19 05:00:28;;;;;;;11.88;3.85;;;9.80;70.70;;;;;;4969066;28;20051;-77
2023/05/19 05:03:03;;;;;;;8.32;3.05;;;9.80;70.80;;;;;;4949856;28;20054;-77
2023/05/19 05:05:32;;;;;;;7.05;3.35;;;9.80;70.50;;;;;;4952850;28;20067;-77
2023/05/19 05:07:59;;;;;;;9.37;3.37;;;9.80;71.00;;;;;;4952841;28;20917;-77
2023/05/19 05:10:31;;;;;;;11.32;3.65;;;9.80;71.20;;;;;;4978962;28;20297;-77
2023/05/19 05:12:59;;;;;;;8.93;3.70;;;9.80;71.40;;;;;;4959842;28;20051;-77
2023/05/19 05:15:28;;;;;;;9.50;3.65;;;9.80;71.50;;;;;;4957175;28;20043;-77
2023/05/19 05:17:57;;;;;;;9.13;3.50;;;9.80;71.50;;;;;;4942867;28;20822;-77
2023/05/19 05:20:25;;;;;;;12.43;3.90;;;9.80;71.40;;;;;;4951245;28;20115;-77
2023/05/19 05:22:53;;;;;;;12.13;4.25;;;9.90;71.50;;;;;;4953556;28;20263;-77
2023/05/19 05:25:22;;;;;;;9.02;3.30;;;9.90;71.70;;;;;;4941519;28;20462;-77
2023/05/19 05:27:51;;;;;;;10.77;3.88;;;9.90;71.60;;;;;;4946568;28;20051;-77
2023/05/19 05:30:19;;;;;;;11.02;3.97;;;9.90;72.00;;;;;;4952960;28;20070;-77
2023/05/19 05:32:46;;;;;;;9.70;3.83;;;10.00;72.50;;;;;;4938130;28;20886;-78
2023/05/19 05:35:28;;;;;;;10.85;3.83;;;10.00;72.90;;;;;;4962741;28;20260;-77
2023/05/19 05:37:55;;;;;;;11.48;3.95;;;10.00;72.70;;;;;;4937693;28;20082;-77
2023/05/19 05:40:23;;;;;;;10.00;4.20;;;10.00;72.20;;;;;;4952575;28;20047;-77
2023/05/19 05:42:51;;;;;;;10.18;3.95;;;10.00;72.50;;;;;;4950541;28;20056;-77
2023/05/19 05:45:22;;;;;;;11.87;4.07;;;10.00;72.90;;;;;;4948693;28;20106;-77
2023/05/19 05:47:50;;;;;;;10.68;3.97;;;10.00;72.70;;;;;;4933527;28;20307;-77
2023/05/19 05:50:18;;;;;;;11.05;3.72;;;10.00;73.40;;;;;;4938367;28;20879;-77
2023/05/19 05:52:47;;;;;;;9.20;3.90;;;10.10;73.70;;;;;;4952555;28;20065;-77
2023/05/19 05:55:17;;;;;;;9.35;4.15;;;10.10;74.20;;;;;;4947553;28;20056;-77
2023/05/19 05:57:47;;;;;;;11.13;4.10;;;10.10;73.70;;;;;;4963129;28;20105;-77
2023/05/19 06:00:17;;;;;;;10.50;3.97;;;10.10;73.50;;;;;;4946554;28;20366;-77
2023/05/19 06:02:51;;;;;;;29.23;5.05;;;10.10;73.50;;;;;;4953864;28;20043;-77
2023/05/19 06:05:20;;;;;;;14.15;4.00;;;10.20;74.10;;;;;;4934938;28;20054;-77
2023/05/19 06:07:49;;;;;;;12.00;4.75;;;10.20;74.60;;;;;;4950765;28;20047;-77
2023/05/19 06:10:23;;;;;;;9.57;3.77;;;10.30;74.90;;;;;;4950470;28;20726;-77
2023/05/19 06:12:50;;;;;;;8.93;3.78;;;10.30;74.20;;;;;;4949449;28;20262;-77
2023/05/19 06:15:19;;;;;;;10.07;4.30;;;10.30;74.00;;;;;;4951376;28;20458;-76
2023/05/19 06:17:53;;;;;;;10.50;3.67;;;10.40;73.90;;;;;;4951320;28;20086;-77
2023/05/19 06:20:20;;;;;;;9.60;3.97;;;10.40;74.20;;;;;;4944475;28;20569;-76
2023/05/19 06:22:47;;;;;;;12.33;3.93;;;10.40;74.40;;;;;;4967791;28;20051;-76
2023/05/19 06:25:17;;;;;;;10.00;4.22;;;10.50;74.80;;;;;;4949340;28;20264;-77
2023/05/19 06:27:44;;;;;;;8.20;3.70;;;10.50;74.80;;;;;;4949668;28;20477;-77
2023/05/19 06:30:12;;;;;;;11.52;4.00;;;10.50;74.40;;;;;;4952557;28;20063;-76
2023/05/19 06:32:59;;;;;;;9.25;3.95;;;10.60;74.50;;;;;;4934657;28;20054;-76
2023/05/19 06:35:27;;;;;;;12.23;3.97;;;10.60;74.40;;;;;;4967691;28;20051;-77
2023/05/19 06:37:55;;;;;;;9.95;3.95;;;10.70;74.30;;;;;;4938866;28;20770;-77
2023/05/19 06:40:22;;;;;;;10.13;3.53;;;10.70;74.40;;;;;;4966297;28;20071;-77
2023/05/19 06:42:49;;;;;;;7.13;3.55;;;10.70;74.40;;;;;;4966229;28;20150;-77
2023/05/19 06:45:23;;;;;;;8.57;3.45;;;10.80;74.40;;;;;;4947308;28;20142;-76
2023/05/19 06:47:52;;;;;;;8.87;3.93;;;10.90;74.10;;;;;;4937718;28;20050;-76
2023/05/19 06:50:22;;;;;;;9.15;3.30;;;10.90;74.20;;;;;;4960021;28;20694;-76
2023/05/19 06:52:51;;;;;;;9.88;3.90;;;11.00;74.20;;;;;;4965599;28;20122;-76
2023/05/19 06:55:19;;;;;;;8.65;3.55;;;11.00;74.10;;;;;;4949873;28;20131;-77
2023/05/19 06:57:46;;;;;;;8.23;3.33;;;11.10;73.60;;;;;;4970691;28;20058;-77
2023/05/19 07:00:15;;;;;;;9.20;3.40;;;11.10;73.80;;;;;;4969250;28;20494;-77
2023/05/19 07:02:44;;;;;;;8.98;3.35;;;11.10;73.70;;;;;;4970620;28;20263;-76
2023/05/19 07:05:11;;;;;;;7.88;3.05;;;11.20;73.50;;;;;;4941664;28;20039;-76
2023/05/19 07:07:40;;;;;;;9.13;3.20;;;11.30;73.40;;;;;;4936229;28;20827;-76
2023/05/19 07:10:12;;;;;;;7.32;3.40;;;11.30;73.20;;;;;;4937417;28;20059;-77
2023/05/19 07:12:39;;;;;;;7.77;3.20;;;11.40;73.00;;;;;;4953839;28;20050;-77
2023/05/19 07:15:07;;;;;;;8.30;3.45;;;11.40;72.90;;;;;;4969453;28;21358;-77
2023/05/19 07:17:35;;;;;;;9.02;3.05;;;11.50;73.00;;;;;;4969351;28;20055;-77
2023/05/19 07:20:05;;;;;;;6.65;2.95;;;11.50;72.60;;;;;;4952410;28;20596;-77
2023/05/19 07:22:33;;;;;;;9.25;3.08;;;11.50;72.30;;;;;;4969084;28;20170;-76
2023/05/19 07:25:02;;;;;;;7.70;3.10;;;11.60;72.30;;;;;;4952628;28;20062;-77
2023/05/19 07:27:30;;;;;;;10.32;3.08;;;11.70;72.20;;;;;;4950122;28;20283;-76
2023/05/19 07:29:57;;;;;;;6.45;2.70;;;11.70;72.10;;;;;;4970070;28;20059;-76
2023/05/19 07:32:24;;;;;;;8.68;2.78;;;11.80;72.00;;;;;;4968511;28;20109;-77
2023/05/19 07:34:52;;;;;;;9.52;2.50;;;11.90;71.80;;;;;;4941357;28;20430;-77
2023/05/19 07:37:19;;;;;;;7.00;2.50;;;11.90;71.40;;;;;;4958236;28;20043;-76
2023/05/19 07:39:46;;;;;;;7.95;2.75;;;11.90;71.00;;;;;;4969838;28;20280;-76
2023/05/19 07:42:14;;;;;;;8.85;2.67;;;12.00;70.90;;;;;;4968890;28;20130;-76
2023/05/19 07:44:41;;;;;;;7.93;2.70;;;12.10;70.70;;;;;;4962502;28;20734;-76
2023/05/19 07:47:08;;;;;;;8.20;2.63;;;12.10;70.60;;;;;;4955400;28;20051;-77
2023/05/19 07:49:36;;;;;;;9.73;2.83;;;12.20;70.20;;;;;;4965158;28;20059;-77
2023/05/19 07:52:03;;;;;;;7.15;2.85;;;12.20;70.00;;;;;;4952880;28;20275;-76
2023/05/19 07:54:30;;;;;;;9.27;2.95;;;12.30;69.60;;;;;;4954788;28;20182;-76
2023/05/19 07:56:57;;;;;;;7.55;2.60;;;12.40;69.20;;;;;;4990680;28;20059;-76
2023/05/19 07:59:25;;;;;;;9.88;2.72;;;12.50;69.10;;;;;;4952402;28;20098;-76
2023/05/19 08:01:52;;;;;;;6.30;2.47;;;12.50;68.90;;;;;;4976881;28;20051;-78
2023/05/19 08:04:19;;;;;;;5.30;1.92;;;12.50;68.30;;;;;;4948987;28;20757;-77
2023/05/19 08:06:46;;;;;;;5.75;1.77;;;12.60;68.50;;;;;;4947969;28;20055;-78
2023/05/19 08:09:13;;;;;;;7.72;2.33;;;12.70;68.50;;;;;;4947159;28;20517;-77
2023/05/19 08:11:40;;;;;;;7.05;2.10;;;12.70;68.50;;;;;;4955907;28;20040;-76
2023/05/19 08:14:07;;;;;;;7.73;2.43;;;12.80;68.20;;;;;;4970069;28;20083;-76
2023/05/19 08:16:36;;;;;;;6.15;2.25;;;12.90;67.80;;;;;;4958530;28;20294;-76
2023/05/19 08:19:05;;;;;;;7.47;2.40;;;12.90;67.30;;;;;;4940232;28;20055;-77
2023/05/19 08:21:33;;;;;;;7.07;2.40;;;13.00;66.90;;;;;;4960899;28;20579;-75
2023/05/19 08:24:00;;;;;;;6.38;2.03;;;13.10;66.70;;;;;;4959067;28;20062;-76
2023/05/19 08:26:27;;;;;;;12.83;2.63;;;13.10;65.70;;;;;;4977776;28;20055;-76
2023/05/19 08:28:54;;;;;;;6.10;2.70;;;13.10;65.90;;;;;;4964083;28;20255;-77
2023/05/19 08:31:23;;;;;;;5.32;2.15;;;13.20;65.70;;;;;;4933936;28;20055;-76
2023/05/19 08:33:52;;;;;;;7.78;2.10;;;13.30;65.40;;;;;;4960151;28;20135;-77
2023/05/19 08:36:20;;;;;;;8.23;2.63;;;13.30;64.80;;;;;;4970716;28;20066;-77
2023/05/19 08:38:47;;;;;;;7.20;2.20;;;13.40;64.90;;;;;;4980276;28;20055;-77
2023/05/19 08:41:15;;;;;;;6.00;2.15;;;13.50;64.80;;;;;;4952654;28;20386;-77
2023/05/19 08:43:42;;;;;;;8.32;2.47;;;13.50;64.90;;;;;;4968735;28;20055;-78
2023/05/19 08:46:15;;;;;;;6.80;2.25;;;13.60;64.30;;;;;;4952181;28;20142;-77
2023/05/19 08:48:44;;;;;;;7.53;2.55;;;13.60;64.10;;;;;;4970132;28;20480;-78
2023/05/19 08:51:27;;;;;;;6.27;2.27;;;13.70;64.30;;;;;;4964980;28;20058;-78
2023/05/19 08:54:01;;;;;;;7.90;2.38;;;13.80;64.00;;;;;;4952416;28;20331;-77
2023/05/19 08:56:28;;;;;;;5.45;1.85;;;13.90;64.00;;;;;;4969837;28;20178;-77
2023/05/19 08:58:59;;;;;;;5.20;2.25;;;13.90;63.70;;;;;;4970964;28;20065;-77
2023/05/19 09:01:27;;;;;;;7.68;2.22;;;14.00;63.60;;;;;;4948823;28;20062;-77
2023/05/19 09:03:55;;;;;;;6.33;2.30;;;14.10;63.20;;;;;;4975671;28;20436;-77
2023/05/19 09:06:23;;;;;;;7.55;2.38;;;14.10;62.70;;;;;;4951672;28;20282;-75
2023/05/19 09:08:50;;;;;;;8.70;2.38;;;14.20;62.30;;;;;;4960753;28;20031;-75
2023/05/19 09:11:17;;;;;;;7.88;2.10;;;14.30;61.80;;;;;;4945361;28;20040;-75
2023/05/19 09:13:44;;;;;;;6.30;1.98;;;14.30;61.40;;;;;;4950977;28;20054;-75
2023/05/19 09:16:12;;;;;;;49.60;5.20;;;14.40;61.80;;;;;;4968509;28;20058;-75
2023/05/19 09:18:40;;;;;;;8.43;2.15;;;14.40;61.70;;;;;;4951283;28;20270;-75
2023/05/19 09:21:09;;;;;;;6.32;1.98;;;14.40;61.60;;;;;;4967335;28;20051;-75
2023/05/19 09:23:37;;;;;;;7.57;2.15;;;14.50;61.20;;;;;;4968491;28;20637;-76
2023/05/19 09:26:06;;;;;;;7.78;1.90;;;14.60;60.90;;;;;;4968758;28;20054;-75
2023/05/19 09:28:35;;;;;;;7.60;2.10;;;14.60;61.00;;;;;;4952201;28;20047;-75
2023/05/19 09:31:03;;;;;;;6.80;2.80;;;14.70;60.90;;;;;;4960801;28;21376;-75
2023/05/19 09:33:32;;;;;;;7.97;2.17;;;14.70;60.00;;;;;;4967432;28;20052;-75
2023/05/19 09:35:59;;;;;;;7.68;2.50;;;14.80;59.30;;;;;;4951608;28;20556;-75
2023/05/19 09:38:26;;;;;;;6.05;2.10;;;14.80;60.00;;;;;;4951432;28;20560;-75
2023/05/19 09:40:57;;;;;;;7.20;2.20;;;14.90;59.80;;;;;;4952972;28;20048;-76
2023/05/19 09:43:24;;;;;;;5.65;1.92;;;14.90;59.50;;;;;;4952676;28;20256;-75
2023/05/19 09:45:55;;;;;;;7.72;1.80;;;15.00;59.40;;;;;;4969725;28;20166;-76
2023/05/19 09:48:23;;;;;;;6.55;1.90;;;15.00;58.70;;;;;;4960272;28;20067;-75
2023/05/19 09:50:51;;;;;;;6.40;2.00;;;15.10;58.70;;;;;;4953559;28;20051;-76
2023/05/19 09:53:19;;;;;;;28.13;3.83;;;15.20;58.40;;;;;;4978794;28;20058;-75
2023/05/19 09:55:46;;;;;;;19.67;3.13;;;15.30;58.50;;;;;;4951854;28;20275;-75
2023/05/19 09:58:19;;;;;;;6.05;2.20;;;15.40;58.10;;;;;;4966829;28;20095;-75
2023/05/19 10:00:47;;;;;;;8.40;2.00;;;15.40;57.90;;;;;;4969199;28;20055;-76
2023/05/19 10:03:16;;;;;;;9.52;2.13;;;15.50;57.30;;;;;;4968927;28;20448;-76
2023/05/19 10:05:44;;;;;;;5.17;1.97;;;15.60;56.80;;;;;;4951131;28;20051;-75
2023/05/19 10:08:12;;;;;;;7.70;2.05;;;15.60;56.90;;;;;;4967867;28;20275;-75
2023/05/19 10:10:39;;;;;;;8.98;2.20;;;15.70;56.90;;;;;;4975646;28;20154;-76
2023/05/19 10:13:07;;;;;;;5.53;1.92;;;15.80;56.90;;;;;;4971209;28;20151;-76
2023/05/19 10:15:37;;;;;;;7.70;1.75;;;15.80;56.50;;;;;;4952042;28;20490;-76
2023/05/19 10:18:06;;;;;;;6.00;2.10;;;15.90;56.20;;;;;;4948433;28;20061;-75
2023/05/19 10:20:34;;;;;;;5.63;2.25;;;16.00;56.10;;;;;;4940167;28;20788;-75
2023/05/19 10:23:01;;;;;;;14.93;2.50;;;16.00;56.00;;;;;;4956843;28;20066;-76
2023/05/19 10:25:30;;;;;;;5.68;1.90;;;16.00;56.20;;;;;;4957746;28;20051;-75
2023/05/19 10:28:06;;;;;;;7.40;2.15;;;16.10;55.90;;;;;;4950896;28;20541;-75
2023/05/19 10:30:37;;;;;;;9.17;2.10;;;16.10;56.00;;;;;;4958137;28;20055;-76
2023/05/19 10:33:09;;;;;;;6.80;2.00;;;16.20;56.10;;;;;;4956874;28;20633;-75
2023/05/19 10:35:58;;;;;;;7.93;2.10;;;16.30;55.80;;;;;;4959834;28;20517;-76
2023/05/19 10:38:33;;;;;;;6.45;1.90;;;16.40;55.70;;;;;;4959710;28;20686;-75
2023/05/19 10:41:10;;;;;;;30.75;4.13;;;16.40;55.70;;;;;;4964054;28;20063;-76
2023/05/19 10:43:54;;;;;;;8.30;2.03;;;16.50;55.30;;;;;;4966895;28;20825;-75
2023/05/19 10:46:24;;;;;;;7.45;2.15;;;16.60;54.90;;;;;;4932623;28;20276;-75
2023/05/19 10:48:54;;;;;;;24.55;3.65;;;16.60;55.00;;;;;;4963938;28;20501;-75
2023/05/19 10:51:28;;;;;;;6.95;2.15;;;16.70;55.00;;;;;;4959876;28;20062;-75
2023/05/19 10:53:57;;;;;;;6.72;2.10;;;16.80;54.80;;;;;;4962360;28;20831;-75
2023/05/19 10:56:33;;;;;;;8.33;2.03;;;16.90;55.00;;;;;;4949713;28;20059;-76
2023/05/19 10:59:00;;;;;;;5.93;1.73;;;16.90;54.50;;;;;;4966559;28;20349;-75
2023/05/19 11:01:32;;;;;;;10.85;2.30;;;17.00;54.10;;;;;;4966984;28;20048;-75
2023/05/19 11:04:06;;;;;;;5.57;1.80;;;17.00;54.70;;;;;;4951081;28;20204;-76
2023/05/19 11:06:34;;;;;;;5.60;2.00;;;17.20;54.70;;;;;;4968599;28;20461;-76
2023/05/19 11:09:09;;;;;;;9.87;2.00;;;17.20;54.60;;;;;;4972570;28;20059;-75
2023/05/19 11:11:47;;;;;;;6.07;2.10;;;17.20;54.30;;;;;;4953669;28;20342;-75
2023/05/19 11:14:17;;;;;;;6.28;2.03;;;17.40;54.20;;;;;;4969024;28;20087;-76
2023/05/19 11:16:46;;;;;;;6.35;2.00;;;17.40;54.20;;;;;;4974591;28;20050;-75
2023/05/19 11:19:19;;;;;;;6.18;1.95;;;17.50;54.10;;;;;;4953438;28;20060;-76
2023/05/19 11:21:53;;;;;;;7.27;2.40;;;17.50;54.00;;;;;;4951095;28;20066;-76
2023/05/19 11:24:35;;;;;;;13.13;2.30;;;17.60;53.50;;;;;;4968153;28;20331;-77
2023/05/19 11:27:19;;;;;;;6.70;2.20;;;17.70;53.40;;;;;;4963496;28;20044;-76
2023/05/19 11:29:47;;;;;;;15.63;2.40;;;17.80;53.10;;;;;;4982838;28;20079;-75
2023/05/19 11:32:14;;;;;;;4.82;2.13;;;17.80;53.10;;;;;;4949934;28;20058;-76
2023/05/19 11:34:45;;;;;;;8.30;2.30;;;17.90;53.10;;;;;;4967605;28;20048;-76
2023/05/19 11:37:12;;;;;;;6.38;2.00;;;18.00;53.10;;;;;;4955704;28;20467;-77
2023/05/19 11:39:39;;;;;;;7.65;2.42;;;18.00;53.10;;;;;;4985558;28;20057;-75
2023/05/19 11:42:08;;;;;;;4.82;1.90;;;18.10;52.80;;;;;;4969183;28;20098;-75
2023/05/19 11:44:35;;;;;;;7.82;2.00;;;18.10;52.90;;;;;;4971409;28;20055;-76
2023/05/19 11:47:03;;;;;;;7.97;2.03;;;18.20;53.60;;;;;;4970692;28;20194;-77
2023/05/19 11:49:30;;;;;;;10.60;2.78;;;18.30;52.80;;;;;;4957896;28;20279;-76
2023/05/19 11:52:00;;;;;;;61.70;7.03;;;18.30;53.60;;;;;;4976650;28;20054;-77
2023/05/19 11:54:32;;;;;;;8.02;2.35;;;18.40;52.50;;;;;;4951989;28;20526;-77
2023/05/19 11:57:01;;;;;;;16.63;2.83;;;18.50;52.40;;;;;;4969528;28;20059;-77
2023/05/19 11:59:32;;;;;;;6.97;2.27;;;18.50;52.40;;;;;;4953487;28;20081;-76
2023/05/19 12:02:03;;;;;;;5.03;1.95;;;18.60;51.40;;;;;;4968625;28;20263;-77
2023/05/19 12:04:30;;;;;;;7.13;2.13;;;18.70;51.80;;;;;;4953087;28;20047;-76
2023/05/19 12:06:59;;;;;;;8.27;2.05;;;18.70;51.80;;;;;;4952781;28;20058;-77
2023/05/19 12:09:28;;;;;;;18.25;2.97;;;18.80;51.50;;;;;;4953674;28;20047;-77
2023/05/19 12:11:55;;;;;;;6.97;2.10;;;18.80;50.90;;;;;;4970250;28;20081;-76
2023/05/19 12:14:22;;;;;;;6.30;2.08;;;18.90;50.90;;;;;;4969286;28;20255;-77
2023/05/19 12:16:49;;;;;;;6.85;1.70;;;18.90;50.90;;;;;;4968454;28;20055;-77
2023/05/19 12:19:16;;;;;;;4.75;1.83;;;19.00;51.50;;;;;;4952998;28;20058;-77
2023/05/19 12:21:43;;;;;;;7.28;1.80;;;19.00;52.10;;;;;;4970573;28;20434;-77
2023/05/19 12:24:12;;;;;;;7.67;2.40;;;19.10;52.20;;;;;;4970593;28;20047;-77
2023/05/19 12:26:38;;;;;;;5.28;1.95;;;19.20;50.80;;;;;;4952345;28;20645;-77
2023/05/19 12:29:06;;;;;;;5.03;2.00;;;19.30;50.50;;;;;;4970455;28;20197;-77
2023/05/19 12:31:34;;;;;;;7.97;1.90;;;19.30;50.30;;;;;;4970564;28;20055;-77
2023/05/19 12:34:01;;;;;;;4.72;1.90;;;19.40;49.70;;;;;;4949304;28;20052;-77
2023/05/19 12:36:29;;;;;;;8.17;2.10;;;19.40;49.30;;;;;;4977484;28;20527;-77
2023/05/19 12:38:56;;;;;;;6.18;2.03;;;19.50;49.30;;;;;;4972499;28;20281;-77
2023/05/19 12:41:26;;;;;;;6.15;1.70;;;19.50;49.80;;;;;;4965161;28;20059;-76
2023/05/19 12:43:55;;;;;;;6.50;1.83;;;19.50;49.50;;;;;;4979792;28;20051;-77
2023/05/19 12:46:22;;;;;;;5.40;1.80;;;19.50;49.40;;;;;;4941845;28;20086;-76
2023/05/19 12:48:50;;;;;;;5.50;2.23;;;19.50;49.90;;;;;;4948683;28;20449;-76
2023/05/19 12:51:18;;;;;;;8.30;2.67;;;19.60;49.00;;;;;;4949984;28;20256;-77
2023/05/19 12:53:46;;;;;;;7.28;2.22;;;19.60;48.70;;;;;;4949509;28;20590;-76
2023/05/19 12:56:13;;;;;;;7.78;1.83;;;19.70;49.10;;;;;;4952731;28;20057;-76